createdAt,value
2018-12-24T00:02:39.687Z,100716.91
2018-12-24T00:05:23.021Z,100762.48
2018-12-24T00:07:51.309Z,100768.21
2018-12-24T00:10:32.301Z,100776.45
2018-12-24T00:13:13.836Z,100721.57
2018-12-24T00:15:58.374Z,100789.06
2018-12-24T00:18:42.036Z,100794.30
2018-12-24T00:21:10.360Z,100793.18
2018-12-24T00:23:55.099Z,100782.69
2018-12-24T00:26:37.732Z,100817.64
2018-12-24T00:29:21.101Z,100795.92
2018-12-24T00:32:12.256Z,100815.77
2018-12-24T00:34:53.161Z,100828.43
2018-12-24T00:37:36.536Z,100837.55
2018-12-24T00:40:19.955Z,100853.52
2018-12-24T00:43:04.541Z,100850.83
2018-12-24T00:45:32.809Z,100850.08
2018-12-24T00:48:18.161Z,100868.30
2018-12-24T00:51:02.715Z,100868.92
2018-12-24T00:53:46.254Z,100881.35
2018-12-24T00:56:26.903Z,100883.89
2018-12-24T00:58:55.180Z,100900.73
2018-12-24T01:01:44.664Z,100897.53
2018-12-24T01:04:12.910Z,100908.33
2018-12-24T01:06:54.176Z,100908.70
2018-12-24T01:09:35.600Z,100922.78
2018-12-24T01:12:03.962Z,100930.01
2018-12-24T01:14:57.885Z,100897.83
2018-12-24T01:17:49.934Z,100934.64
2018-12-24T01:20:30.850Z,100911.50
2018-12-24T01:23:13.369Z,100980.13
2018-12-24T01:25:54.934Z,100994.39
2018-12-24T01:28:23.183Z,100988.10
2018-12-24T01:34:06.309Z,100967.06
2018-12-24T01:36:46.996Z,100971.18
2018-12-24T01:39:15.257Z,101029.77
2018-12-24T01:41:43.525Z,101031.68
2018-12-24T01:44:13.435Z,101043.23
2018-12-24T01:46:58.245Z,101053.95
2018-12-24T01:52:41.021Z,101065.98
2018-12-24T01:55:21.666Z,101061.06
2018-12-24T01:58:03.234Z,101025.70
2018-12-24T02:00:31.497Z,101077.78
2018-12-24T02:03:12.346Z,101044.65
2018-12-24T02:06:05.822Z,101092.02
2018-12-24T02:08:49.327Z,101064.52
2018-12-24T02:11:32.768Z,101095.30
2018-12-24T02:14:13.401Z,101098.30
2018-12-24T02:16:41.666Z,101103.78
2018-12-24T02:19:09.961Z,101111.73
2018-12-24T02:24:23.488Z,101112.50
2018-12-24T02:27:04.324Z,101117.66
2018-12-24T02:29:47.747Z,101131.36
2018-12-24T02:32:41.263Z,101132.98
2018-12-24T02:35:09.538Z,101138.72
2018-12-24T02:37:37.922Z,101137.35
2018-12-24T02:40:21.011Z,101146.38
2018-12-24T02:43:04.437Z,101103.84
2018-12-24T02:45:32.689Z,101138.98
2018-12-24T02:48:00.986Z,101141.47
2018-12-24T02:50:42.478Z,101152.45
2018-12-24T02:53:27.038Z,101162.56
2018-12-24T02:56:11.560Z,101166.94
2018-12-24T02:58:56.078Z,101175.17
2018-12-24T03:01:40.662Z,101187.52
2018-12-24T03:04:24.086Z,101130.86
2018-12-24T03:07:08.629Z,101197.38
2018-12-24T03:09:53.143Z,101157.91
2018-12-24T03:12:37.721Z,101209.42
2018-12-24T03:15:22.316Z,101167.17
2018-12-24T03:18:02.939Z,101218.16
2018-12-24T03:20:46.359Z,101224.48
2018-12-24T03:23:30.875Z,101186.89
2018-12-24T03:26:15.432Z,101232.69
2018-12-24T03:28:56.046Z,101238.44
2018-12-24T03:31:37.571Z,101232.63
2018-12-24T03:34:19.085Z,101201.61
2018-12-24T03:37:00.633Z,101237.00
2018-12-24T03:39:43.944Z,101199.69
2018-12-24T03:42:12.839Z,101252.67
2018-12-24T03:44:55.988Z,101203.55
2018-12-24T03:47:40.505Z,101260.85
2018-12-24T03:50:21.103Z,101262.54
2018-12-24T03:52:49.364Z,101264.17
2018-12-24T03:55:17.641Z,101279.52
2018-12-24T03:58:00.973Z,101280.33
2018-12-24T04:00:42.541Z,101272.66
2018-12-24T04:03:23.968Z,101276.52
2018-12-24T04:06:09.413Z,101277.58
2018-12-24T04:08:53.904Z,101243.53
2018-12-24T04:11:38.484Z,101273.03
2018-12-24T04:14:27.600Z,101304.17
2018-12-24T04:17:17.082Z,101288.64
2018-12-24T04:20:01.783Z,101326.91
2018-12-24T04:22:42.435Z,101265.75
2018-12-24T04:25:10.702Z,101328.80
2018-12-24T04:27:55.531Z,101334.55
2018-12-24T04:30:40.034Z,101338.66
2018-12-24T04:33:08.304Z,101331.80
2018-12-24T04:35:49.269Z,101340.04
2018-12-24T04:38:30.798Z,101351.54
2018-12-24T04:41:14.246Z,101304.34
2018-12-24T04:44:07.707Z,101352.88
2018-12-24T04:46:51.124Z,101359.43
2018-12-24T04:49:35.681Z,101367.12
2018-12-24T04:52:04.046Z,101380.00
2018-12-24T04:54:48.518Z,101378.91
2018-12-24T04:57:16.764Z,101389.09
2018-12-24T04:59:45.054Z,101395.12
2018-12-24T05:02:13.327Z,101393.24
2018-12-24T05:05:07.255Z,101403.69
2018-12-24T05:07:50.671Z,101363.59
2018-12-24T05:10:31.315Z,101387.83
2018-12-24T05:16:14.966Z,101440.70
2018-12-24T05:19:12.502Z,101440.95
2018-12-24T05:21:53.996Z,101453.84
2018-12-24T05:24:35.521Z,101454.09
2018-12-24T05:27:17.006Z,101470.83
2018-12-24T05:30:07.062Z,101477.16
2018-12-24T05:32:47.977Z,101488.95
2018-12-24T05:35:31.428Z,101482.91
2018-12-24T05:38:12.991Z,101494.98
2018-12-24T05:40:54.495Z,101452.08
2018-12-24T05:43:22.766Z,101507.09
2018-12-24T05:46:03.610Z,101505.14
2018-12-24T05:48:45.151Z,101466.05
2018-12-24T05:51:37.189Z,101514.47
2018-12-24T05:54:18.134Z,101478.09
2018-12-24T05:56:59.657Z,101529.84
2018-12-24T05:59:27.945Z,101528.73
2018-12-24T06:02:12.702Z,101542.73
2018-12-24T06:04:40.956Z,101543.83
2018-12-24T06:07:25.888Z,101553.45
2018-12-24T06:10:06.551Z,101556.99
2018-12-24T06:12:48.069Z,101529.97
2018-12-24T06:15:31.482Z,101571.82
2018-12-24T06:18:16.005Z,101595.97
2018-12-24T06:21:09.476Z,101597.92
2018-12-24T06:24:04.111Z,101609.16
2018-12-24T06:26:32.388Z,101620.95
2018-12-24T06:29:15.900Z,101626.19
2018-12-24T06:31:54.715Z,101628.94
2018-12-24T06:46:48.985Z,101668.16
2018-12-24T06:49:37.118Z,101667.05
2018-12-24T06:52:34.924Z,101671.44
2018-12-24T06:55:18.379Z,101633.06
2018-12-24T06:58:10.314Z,101685.97
2018-12-24T07:00:55.142Z,101690.92
2018-12-24T07:03:39.805Z,101681.70
2018-12-24T07:06:24.384Z,101686.41
2018-12-24T07:09:05.942Z,101665.16
2018-12-24T07:11:49.417Z,101698.92
2018-12-24T07:14:33.989Z,101711.28
2018-12-24T07:17:14.658Z,101712.70
2018-12-24T07:19:42.915Z,101708.31
2018-12-24T07:22:27.717Z,101671.30
2018-12-24T07:24:55.970Z,101720.94
2018-12-24T07:27:49.901Z,101717.36
2018-12-24T07:30:33.187Z,101733.30
2018-12-24T07:33:25.246Z,101734.41
2018-12-24T07:35:53.505Z,101742.39
2018-12-24T07:38:36.735Z,101739.91
2018-12-24T07:41:21.288Z,101700.18
2018-12-24T07:44:05.931Z,101744.61
2018-12-24T07:46:34.198Z,101743.78
2018-12-24T07:49:02.483Z,101753.97
2018-12-24T07:51:30.847Z,101750.38
2018-12-24T07:54:15.469Z,101756.71
2018-12-24T07:56:57.038Z,101718.88
2018-12-24T07:59:25.322Z,101762.20
2018-12-24T08:02:06.055Z,101770.14
2018-12-24T08:04:49.467Z,101744.22
2018-12-24T08:10:31.298Z,101781.96
2018-12-24T08:12:59.598Z,101788.56
2018-12-24T08:18:42.557Z,101792.95
2018-12-24T08:21:23.198Z,101756.78
2018-12-24T08:24:06.497Z,101817.42
2018-12-24T08:26:53.399Z,101765.27
2018-12-24T08:29:21.284Z,101825.66
2018-12-24T08:32:02.767Z,101829.24
2018-12-24T08:34:44.185Z,101835.54
2018-12-24T08:37:25.710Z,101831.41
2018-12-24T08:40:10.381Z,101842.39
2018-12-24T08:42:51.413Z,101855.56
2018-12-24T08:45:32.421Z,101831.08
2018-12-24T08:48:15.740Z,101836.61
2018-12-24T08:50:56.607Z,101838.25
2018-12-24T08:53:38.125Z,101894.02
2018-12-24T08:56:07.649Z,101904.44
2018-12-24T08:58:48.782Z,101865.67
2018-12-24T09:01:25.005Z,101921.45
2018-12-24T09:03:55.079Z,101922.02
2018-12-24T09:06:36.287Z,101925.03
2018-12-24T09:09:07.734Z,101929.42
2018-12-24T09:11:48.420Z,101933.55
2018-12-24T09:14:33.255Z,101930.26
2018-12-24T09:17:14.135Z,101951.67
2018-12-24T09:19:54.867Z,101954.95
2018-12-24T09:22:38.282Z,101968.11
2018-12-24T09:25:22.888Z,101979.37
2018-12-24T09:28:07.709Z,101993.38
2018-12-24T09:30:48.342Z,101993.95
2018-12-24T09:33:22.673Z,101998.06
2018-12-24T09:35:53.975Z,102008.22
2018-12-24T09:38:35.414Z,102013.18
2018-12-24T09:41:23.077Z,102010.16
2018-12-24T09:43:53.084Z,102025.01
2018-12-24T09:46:29.871Z,102028.86
2018-12-24T09:48:59.394Z,102028.59
2018-12-24T09:51:44.267Z,102036.03
2018-12-24T09:54:18.461Z,102049.23
2018-12-24T09:57:01.958Z,102010.13
2018-12-24T09:59:46.670Z,102059.69
2018-12-24T10:02:29.828Z,102059.16
2018-12-24T10:05:14.951Z,102058.05
2018-12-24T10:07:56.613Z,102019.20
2018-12-24T10:10:37.667Z,102064.64
2018-12-24T10:13:22.253Z,102077.55
2018-12-24T10:16:02.900Z,102072.32
2018-12-24T10:18:46.214Z,102068.44
2018-12-24T10:21:26.850Z,102002.77
2018-12-24T10:24:08.279Z,102076.68
2018-12-24T10:27:00.288Z,102087.13
2018-12-24T10:29:41.233Z,102048.84
2018-12-24T10:32:33.182Z,102056.25
2018-12-24T10:35:18.109Z,102097.34
2018-12-24T10:37:49.666Z,102096.27
2018-12-24T10:40:30.819Z,102049.16
2018-12-24T10:43:13.175Z,102098.44
2018-12-24T10:45:57.835Z,102094.59
2018-12-24T10:48:38.499Z,102100.92
2018-12-24T10:51:19.157Z,102052.16
2018-12-24T10:54:00.634Z,102101.70
2018-12-24T10:56:41.259Z,102051.27
2018-12-24T10:59:22.021Z,102087.87
2018-12-24T11:01:50.303Z,102093.34
2018-12-24T11:04:28.462Z,102096.59
2018-12-24T11:06:57.973Z,102096.25
2018-12-24T11:09:41.070Z,102042.80
2018-12-24T11:12:25.859Z,102092.58
2018-12-24T11:15:10.466Z,102090.09
2018-12-24T11:18:01.654Z,102092.53
2018-12-24T11:20:46.914Z,102092.53
2018-12-24T11:23:15.219Z,102097.23
2018-12-24T11:26:09.033Z,102101.40
2018-12-24T11:28:37.345Z,102105.00
2018-12-24T11:31:05.617Z,102100.11
2018-12-24T11:37:03.139Z,102107.88
2018-12-24T11:39:47.950Z,102084.92
2018-12-24T11:42:16.213Z,102111.23
2018-12-24T11:44:57.334Z,102112.07
2018-12-24T11:47:38.948Z,102116.19
2018-12-24T11:50:26.021Z,102082.53
2018-12-24T11:53:13.440Z,102115.11
2018-12-24T11:55:47.863Z,102120.08
2018-12-24T11:58:19.796Z,102121.72
2018-12-24T12:04:03.104Z,102119.23
2018-12-24T12:06:43.908Z,102124.47
2018-12-24T12:09:12.202Z,102125.27
2018-12-24T12:11:53.329Z,102127.99
2018-12-24T12:14:34.774Z,102080.86
2018-12-24T12:17:19.362Z,102125.22
2018-12-24T12:20:00.044Z,102095.14
2018-12-24T12:22:31.278Z,102125.98
2018-12-24T12:25:13.307Z,102130.64
2018-12-24T12:27:41.566Z,102137.22
2018-12-24T12:30:24.620Z,102139.13
2018-12-24T12:39:11.344Z,102149.86
2018-12-24T12:42:09.329Z,102154.01
2018-12-24T12:44:57.363Z,102160.88
2018-12-24T12:47:44.916Z,102157.89
2018-12-24T12:56:25.266Z,102165.09
2018-12-24T12:58:53.554Z,102171.66
2018-12-24T13:01:21.866Z,102179.10
2018-12-24T13:07:02.865Z,102187.89
2018-12-24T13:09:44.191Z,102199.42
2018-12-24T13:12:38.483Z,102203.55
2018-12-24T13:18:07.257Z,102215.11
2018-12-24T13:20:35.516Z,102212.35
2018-12-24T13:23:16.638Z,102211.81
2018-12-24T13:25:44.903Z,102212.38
2018-12-24T13:31:34.344Z,102218.73
2018-12-24T13:37:08.152Z,102215.73
2018-12-24T13:39:39.937Z,102218.73
2018-12-24T13:42:14.432Z,102215.99
2018-12-24T13:44:55.552Z,102227.55
2018-12-24T13:47:23.829Z,102227.55
2018-12-24T13:50:05.666Z,102228.08
2018-12-24T13:52:34.051Z,102233.87
2018-12-24T13:55:02.357Z,102237.45
2018-12-24T13:57:30.606Z,102243.50
2018-12-24T14:03:30.468Z,102253.10
2018-12-24T14:05:58.740Z,102252.56
2018-12-24T14:08:27.037Z,102259.42
2018-12-24T14:11:08.198Z,102268.50
2018-12-24T14:13:36.456Z,102276.20
2018-12-24T14:16:04.734Z,102273.70
2018-12-24T14:18:33.034Z,102283.87
2018-12-24T14:21:27.254Z,102289.34
2018-12-24T14:23:55.513Z,102294.02
2018-12-24T14:26:23.798Z,102289.34
2018-12-24T14:29:05.122Z,102292.33
2018-12-24T14:31:46.176Z,102249.28
2018-12-24T14:34:21.102Z,102280.56
2018-12-24T14:43:09.058Z,102309.09
2018-12-24T14:45:47.024Z,102333.28
2018-12-24T14:48:38.786Z,102344.56
2018-12-24T14:51:17.277Z,102341.55
2018-12-24T14:53:48.505Z,102344.87
2018-12-24T14:56:30.118Z,102356.40
2018-12-24T14:59:04.909Z,102360.52
2018-12-24T15:01:41.302Z,102361.06
2018-12-24T15:07:29.182Z,102363.81
2018-12-24T15:10:18.094Z,102367.64
2018-12-24T15:13:07.108Z,102372.87
2018-12-24T15:15:55.919Z,102383.02
2018-12-24T15:18:44.735Z,102383.25
2018-12-24T15:21:33.641Z,102390.92
2018-12-24T15:24:22.493Z,102391.17
2018-12-24T15:27:11.296Z,102386.50
2018-12-24T15:29:53.096Z,102398.50
2018-12-24T15:32:42.021Z,102405.30
2018-12-24T15:35:30.811Z,102405.22
2018-12-24T15:38:19.637Z,102405.45
2018-12-24T15:41:08.445Z,102403.47
2018-12-24T15:43:57.265Z,102413.27
2018-12-24T15:46:46.134Z,102413.48
2018-12-24T15:49:34.941Z,102404.89
2018-12-24T15:52:23.792Z,102415.25
2018-12-24T15:55:12.607Z,102362.91
2018-12-24T15:58:01.472Z,102421.73
2018-12-24T16:00:50.295Z,102385.91
2018-12-24T16:03:39.148Z,102409.86
2018-12-24T16:06:27.995Z,102407.36
2018-12-24T16:09:16.890Z,102404.83
2018-12-24T16:12:05.721Z,102398.78
2018-12-24T16:14:54.588Z,102415.41
2018-12-24T16:17:43.420Z,102415.33
2018-12-24T16:20:32.272Z,102413.34
2018-12-24T16:23:21.143Z,102409.66
2018-12-24T16:26:10.011Z,102413.34
2018-12-24T16:28:52.034Z,102420.05
2018-12-24T16:31:40.838Z,102427.83
2018-12-24T16:34:29.691Z,102425.77
2018-12-24T16:37:18.508Z,102421.02
2018-12-24T16:40:07.358Z,102419.48
2018-12-24T16:42:56.172Z,102415.78
2018-12-24T16:45:45.018Z,102427.62
2018-12-24T16:48:33.856Z,102434.59
2018-12-24T16:51:22.719Z,102438.83
2018-12-24T16:54:11.327Z,102446.38
2018-12-24T16:57:00.201Z,102455.80
2018-12-24T16:59:49.013Z,102465.25
2018-12-24T17:02:37.852Z,102449.09
2018-12-24T17:05:26.660Z,102462.50
2018-12-24T17:08:15.517Z,102373.58
2018-12-24T17:11:04.338Z,102452.70
2018-12-24T17:13:53.214Z,102354.43
2018-12-24T17:16:35.320Z,102385.47
2018-12-24T17:19:24.134Z,102445.60
2018-12-24T17:22:12.997Z,102386.17
2018-12-24T17:25:01.881Z,102445.97
2018-12-24T17:27:50.684Z,102451.78
2018-12-24T17:30:39.219Z,102384.25
2018-12-24T17:33:28.051Z,102466.55
2018-12-24T17:36:16.935Z,102476.70
2018-12-24T17:39:26.719Z,102480.87
2018-12-24T17:42:15.176Z,102398.65
2018-12-24T17:45:04.190Z,102481.15
2018-12-24T17:47:54.344Z,102478.31
2018-12-24T17:50:43.168Z,102472.73
2018-12-24T17:53:31.999Z,102485.72
2018-12-24T17:56:20.896Z,102492.16
2018-12-24T17:59:09.811Z,102490.94
2018-12-24T18:01:58.818Z,102499.52
2018-12-24T18:04:47.726Z,102505.99
2018-12-24T18:07:36.746Z,102503.41
2018-12-24T18:10:25.619Z,102510.70
2018-12-24T18:13:14.497Z,102505.13
2018-12-24T18:15:55.818Z,102511.05
2018-12-24T18:18:44.701Z,102516.38
2018-12-24T18:21:33.553Z,102514.89
2018-12-24T18:24:03.030Z,102525.11
2018-12-24T18:26:32.511Z,102527.95
2018-12-24T18:29:21.380Z,102538.47
2018-12-24T18:32:03.432Z,102551.19
2018-12-24T18:34:52.382Z,102560.88
2018-12-24T18:37:41.191Z,102544.72
2018-12-24T18:40:30.047Z,102563.42
2018-12-24T18:43:18.862Z,102581.02
2018-12-24T18:46:07.777Z,102582.55
2018-12-24T18:48:56.650Z,102576.22
2018-12-24T18:51:45.484Z,102591.09
2018-12-24T18:54:34.316Z,102596.69
2018-12-24T18:57:03.804Z,102603.44
2018-12-24T18:59:33.320Z,102606.63
2018-12-24T19:02:02.806Z,102611.47
2018-12-24T19:08:06.987Z,102629.30
2018-12-24T19:10:36.528Z,102632.48
2018-12-24T19:13:25.380Z,102631.34
2018-12-24T19:16:14.230Z,102624.15
2018-12-24T19:19:03.058Z,102626.27
2018-12-24T19:21:51.972Z,102621.58
2018-12-24T19:24:40.861Z,102626.42
2018-12-24T19:27:29.649Z,102635.33
2018-12-24T19:30:18.581Z,102634.38
2018-12-24T19:33:07.406Z,102642.98
2018-12-24T19:35:56.250Z,102640.42
2018-12-24T19:38:45.134Z,102640.63
2018-12-24T19:41:34.081Z,102645.77
2018-12-24T19:44:03.628Z,102625.89
2018-12-24T19:46:52.471Z,102636.70
2018-12-24T19:49:33.782Z,102641.84
2018-12-24T19:52:03.367Z,102637.52
2018-12-24T19:54:52.238Z,102653.77
2018-12-24T19:57:41.071Z,102658.16
2018-12-24T20:00:29.979Z,102657.39
2018-12-24T20:03:18.839Z,102652.87
2018-12-24T20:06:07.636Z,102651.36
2018-12-24T20:08:37.245Z,102647.13
2018-12-24T20:11:26.090Z,102650.23
2018-12-24T20:14:14.916Z,102654.97
2018-12-24T20:17:03.750Z,102652.19
2018-12-24T20:19:52.616Z,102644.72
2018-12-24T20:22:22.098Z,102648.34
2018-12-24T20:25:10.996Z,102654.53
2018-12-24T20:27:59.854Z,102656.33
2018-12-24T20:30:48.667Z,102663.58
2018-12-24T20:33:30.614Z,102664.31
2018-12-24T20:36:19.410Z,102609.50
2018-12-24T20:39:08.899Z,102655.66
2018-12-24T20:41:57.716Z,102650.36
2018-12-24T20:44:46.640Z,102659.80
2018-12-24T20:47:16.191Z,102667.59
2018-12-24T20:50:05.168Z,102669.39
2018-12-24T20:52:54.045Z,102680.92
2018-12-24T20:55:42.905Z,102684.08
2018-12-24T20:58:12.411Z,102675.23
2018-12-24T21:01:01.274Z,102676.72
2018-12-24T21:03:50.112Z,102673.61
2018-12-24T21:06:38.930Z,102668.59
2018-12-24T21:09:27.808Z,102669.23
2018-12-24T21:12:16.652Z,102668.29
2018-12-24T21:15:05.886Z,102673.87
2018-12-24T21:17:54.755Z,102625.05
2018-12-24T21:20:43.576Z,102671.94
2018-12-24T21:23:32.627Z,102669.88
2018-12-24T21:26:21.477Z,102668.94
2018-12-24T21:29:10.327Z,102661.95
2018-12-24T21:31:59.123Z,102656.02
2018-12-24T21:34:48.054Z,102656.14
2018-12-24T21:37:36.548Z,102657.87
2018-12-24T21:40:25.431Z,102662.00
2018-12-24T21:43:14.232Z,102661.52
2018-12-24T21:46:03.086Z,102636.46
2018-12-24T21:48:51.960Z,102655.41
2018-12-24T21:51:40.807Z,102655.23
2018-12-24T21:54:29.645Z,102648.52
2018-12-24T21:57:18.525Z,102651.09
2018-12-24T22:00:07.912Z,102650.62
2018-12-24T22:02:56.798Z,102654.52
2018-12-24T22:05:45.638Z,102661.16
2018-12-24T22:08:34.453Z,102655.92
2018-12-24T22:11:23.313Z,102670.04
2018-12-24T22:14:12.169Z,102665.17
2018-12-24T22:17:01.022Z,102663.91
2018-12-24T22:19:49.838Z,102660.19
2018-12-24T22:22:38.690Z,102665.97
2018-12-24T22:25:27.537Z,102665.48
2018-12-24T22:28:16.766Z,102647.06
2018-12-24T22:31:06.907Z,102667.73
2018-12-24T22:33:55.841Z,102658.77
2018-12-24T22:36:37.634Z,102637.52
2018-12-24T22:39:26.483Z,102665.47
2018-12-24T22:42:15.311Z,102671.25
2018-12-24T22:45:04.459Z,102671.09
2018-12-24T22:47:53.317Z,102673.05
2018-12-24T22:50:42.137Z,102681.53
2018-12-24T22:53:31.061Z,102668.17
2018-12-24T22:56:19.927Z,102673.92
2018-12-24T22:59:08.791Z,102671.78
2018-12-24T23:01:57.678Z,102662.81
2018-12-24T23:04:46.577Z,102656.28
2018-12-24T23:07:35.455Z,102663.39
2018-12-24T23:10:24.334Z,102669.44
2018-12-24T23:13:13.178Z,102667.00
2018-12-24T23:16:02.022Z,102663.49
2018-12-24T23:18:50.814Z,102663.23
2018-12-24T23:21:39.673Z,102654.03
2018-12-24T23:24:28.516Z,102632.20
2018-12-24T23:27:17.333Z,102648.02
2018-12-24T23:30:27.100Z,102655.30
2018-12-24T23:33:16.003Z,102647.69
2018-12-24T23:35:57.943Z,102648.27
2018-12-24T23:38:46.789Z,102648.27
2018-12-24T23:41:35.599Z,102651.06
2018-12-24T23:44:24.437Z,102649.73
2018-12-24T23:47:13.281Z,102657.43
2018-12-24T23:50:02.186Z,102645.72
2018-12-24T23:52:51.028Z,102642.17
2018-12-24T23:55:39.970Z,102634.27
2018-12-24T23:58:28.781Z,102641.69
